createdAt,value
2017-07-09T00:01:19.205Z,20.70
2017-07-09T00:03:54.253Z,20.50
2017-07-09T00:06:28.796Z,20.60
2017-07-09T00:09:02.891Z,20.50
2017-07-09T00:11:36.931Z,20.30
2017-07-09T00:14:11.049Z,20.20
2017-07-09T00:16:45.297Z,20.10
2017-07-09T00:19:20.182Z,20.10
2017-07-09T00:21:54.772Z,20.10
2017-07-09T00:24:29.936Z,20.10
2017-07-09T00:27:03.997Z,20.10
2017-07-09T00:29:39.205Z,20.00
2017-07-09T00:32:13.445Z,20.10
2017-07-09T00:34:48.093Z,20.00
2017-07-09T00:37:23.060Z,19.90
2017-07-09T00:39:57.958Z,19.80
2017-07-09T00:42:32.906Z,19.90
2017-07-09T00:45:07.526Z,20.10
2017-07-09T00:50:21.908Z,20.00
2017-07-09T00:52:55.936Z,20.10
2017-07-09T00:55:30.214Z,20.00
2017-07-09T00:58:05.150Z,20.00
2017-07-09T01:00:39.721Z,20.10
2017-07-09T01:03:14.515Z,20.20
2017-07-09T01:05:49.910Z,20.10
2017-07-09T01:08:24.324Z,20.20
2017-07-09T01:10:58.622Z,20.20
2017-07-09T01:13:32.854Z,20.60
2017-07-09T01:16:07.884Z,20.90
2017-07-09T01:18:42.674Z,20.80
2017-07-09T01:21:17.370Z,20.70
2017-07-09T01:23:51.290Z,20.80
2017-07-09T01:26:25.069Z,20.50
2017-07-09T01:28:58.777Z,20.50
2017-07-09T01:31:32.603Z,20.50
2017-07-09T01:34:07.576Z,20.90
2017-07-09T01:36:42.261Z,21.30
2017-07-09T01:39:16.445Z,21.10
2017-07-09T01:41:50.821Z,21.20
2017-07-09T01:44:25.779Z,21.30
2017-07-09T01:47:00.590Z,21.60
2017-07-09T01:49:36.363Z,21.40
2017-07-09T01:52:13.507Z,21.30
2017-07-09T01:54:48.436Z,21.40
2017-07-09T01:57:23.623Z,21.60
2017-07-09T02:00:01.391Z,21.70
2017-07-09T02:02:35.907Z,21.80
2017-07-09T02:05:10.565Z,21.50
2017-07-09T02:07:46.426Z,21.30
2017-07-09T02:10:22.649Z,21.70
2017-07-09T02:12:57.961Z,21.60
2017-07-09T02:15:33.924Z,21.80
2017-07-09T02:18:08.962Z,21.70
2017-07-09T02:20:44.388Z,21.50
2017-07-09T02:23:19.544Z,21.30
2017-07-09T02:25:55.227Z,21.10
2017-07-09T02:28:30.750Z,20.90
2017-07-09T02:31:05.666Z,21.10
2017-07-09T02:33:39.799Z,20.90
2017-07-09T02:36:14.664Z,20.80
2017-07-09T02:38:49.428Z,20.90
2017-07-09T02:41:23.846Z,20.80
2017-07-09T02:43:58.252Z,20.70
2017-07-09T02:46:32.170Z,20.70
2017-07-09T02:49:06.003Z,20.30
2017-07-09T02:51:39.866Z,19.70
2017-07-09T02:54:13.710Z,19.70
2017-07-09T02:56:47.659Z,19.70
2017-07-09T02:59:21.446Z,19.90
2017-07-09T03:01:55.258Z,20.10
2017-07-09T03:04:29.197Z,19.50
2017-07-09T03:07:03.680Z,19.40
2017-07-09T03:09:37.530Z,19.30
2017-07-09T03:12:11.288Z,19.40
2017-07-09T03:14:45.078Z,19.20
2017-07-09T03:17:18.873Z,19.10
2017-07-09T03:19:53.549Z,19.40
2017-07-09T03:22:27.267Z,19.30
2017-07-09T03:25:01.327Z,19.80
2017-07-09T03:27:35.346Z,19.80
2017-07-09T03:30:09.219Z,19.80
2017-07-09T03:32:43.113Z,19.70
2017-07-09T03:35:16.965Z,19.90
2017-07-09T03:37:50.746Z,20.00
2017-07-09T03:40:24.604Z,19.90
2017-07-09T03:42:58.324Z,19.90
2017-07-09T03:45:32.332Z,19.40
2017-07-09T03:48:06.218Z,19.60
2017-07-09T03:50:40.189Z,19.70
2017-07-09T03:53:13.890Z,19.90
2017-07-09T03:55:48.597Z,19.50
2017-07-09T03:58:23.418Z,19.20
2017-07-09T04:00:57.239Z,19.20
2017-07-09T04:03:30.941Z,19.40
2017-07-09T04:06:04.666Z,19.50
2017-07-09T04:08:40.464Z,19.70
2017-07-09T04:11:14.351Z,19.70
2017-07-09T04:13:48.142Z,19.50
2017-07-09T04:16:21.902Z,19.50
2017-07-09T04:18:55.782Z,19.50
2017-07-09T04:21:29.655Z,19.90
2017-07-09T04:24:03.667Z,20.30
2017-07-09T04:26:37.479Z,20.80
2017-07-09T04:29:11.320Z,20.60
2017-07-09T04:31:45.884Z,20.40
2017-07-09T04:34:19.575Z,20.40
2017-07-09T04:36:53.502Z,20.40
2017-07-09T04:39:28.459Z,20.10
2017-07-09T04:42:02.269Z,20.00
2017-07-09T04:44:36.198Z,19.70
2017-07-09T04:47:10.177Z,19.80
2017-07-09T04:49:44.142Z,19.90
2017-07-09T04:52:19.222Z,19.70
2017-07-09T04:54:53.047Z,19.70
2017-07-09T04:57:26.847Z,19.70
2017-07-09T05:00:00.751Z,20.00
2017-07-09T05:02:34.659Z,20.20
2017-07-09T05:05:08.532Z,20.70
2017-07-09T05:07:42.838Z,21.30
2017-07-09T05:10:17.370Z,21.80
2017-07-09T05:12:51.432Z,21.70
2017-07-09T05:15:25.966Z,21.40
2017-07-09T05:17:59.818Z,21.10
2017-07-09T05:20:34.363Z,21.30
2017-07-09T05:23:08.132Z,21.20
2017-07-09T05:25:42.006Z,21.60
2017-07-09T05:28:15.777Z,21.60
2017-07-09T05:30:49.503Z,21.70
2017-07-09T05:33:23.522Z,21.70
2017-07-09T05:35:57.278Z,21.90
2017-07-09T05:38:31.180Z,22.40
2017-07-09T05:41:04.846Z,22.90
2017-07-09T05:43:38.792Z,23.50
2017-07-09T05:46:12.542Z,23.50
2017-07-09T05:48:47.268Z,23.90
2017-07-09T05:51:21.359Z,23.80
2017-07-09T05:53:55.301Z,24.40
2017-07-09T05:56:29.774Z,24.60
2017-07-09T05:59:04.582Z,26.70
2017-07-09T06:01:43.146Z,26.60
2017-07-09T06:04:16.954Z,27.80
2017-07-09T06:06:51.489Z,28.20
2017-07-09T06:09:25.160Z,28.10
2017-07-09T06:11:59.703Z,27.50
2017-07-09T06:14:35.174Z,27.40
2017-07-09T06:17:09.087Z,27.80
2017-07-09T06:19:43.060Z,27.50
2017-07-09T06:22:16.902Z,26.90
2017-07-09T06:24:51.539Z,26.80
2017-07-09T06:27:25.237Z,26.80
2017-07-09T06:29:59.209Z,27.00
2017-07-09T06:32:33.083Z,27.20
2017-07-09T06:35:07.115Z,27.50
2017-07-09T06:37:40.868Z,27.60
2017-07-09T06:40:14.667Z,26.60
2017-07-09T08:39:05.166Z,21.30
2017-07-09T08:41:40.392Z,21.30
2017-07-09T08:44:14.138Z,21.60
2017-07-09T08:46:48.058Z,21.70
2017-07-09T08:49:22.692Z,21.50
2017-07-09T08:51:56.700Z,21.60
2017-07-09T08:54:31.123Z,21.50
2017-07-09T08:57:05.109Z,21.20
2017-07-09T08:59:39.653Z,21.20
2017-07-09T09:02:13.636Z,21.40
2017-07-09T09:04:47.508Z,21.70
2017-07-09T09:44:34.748Z,24.10
2017-07-09T09:47:15.414Z,24.30
2017-07-09T10:16:43.710Z,30.50
2017-07-09T10:19:18.027Z,31.20
2017-07-09T10:21:52.058Z,30.40
2017-07-09T10:24:25.842Z,30.50
2017-07-09T10:26:59.716Z,30.50
2017-07-09T10:29:33.470Z,31.20
2017-07-09T10:32:07.381Z,32.80
2017-07-09T10:34:41.167Z,33.80
2017-07-09T10:37:15.024Z,34.30
2017-07-09T10:39:48.762Z,34.30
2017-07-09T10:42:22.471Z,37.50
2017-07-09T10:44:56.283Z,38.60
2017-07-09T10:47:31.016Z,38.90
2017-07-09T10:50:15.973Z,38.80
2017-07-09T10:52:53.114Z,39.30
2017-07-09T10:55:27.520Z,39.40
2017-07-09T10:58:01.169Z,39.50
2017-07-09T11:00:34.957Z,40.80
2017-07-09T11:03:08.949Z,42.00
2017-07-09T11:05:42.739Z,41.30
2017-07-09T11:08:17.131Z,41.50
2017-07-09T11:10:51.002Z,41.50
2017-07-09T11:13:24.876Z,42.50
2017-07-09T11:15:58.571Z,41.20
2017-07-09T11:18:32.288Z,40.30
2017-07-09T11:21:06.054Z,39.90
2017-07-09T11:23:40.184Z,37.80
2017-07-09T11:26:14.053Z,37.90
2017-07-09T11:28:47.989Z,37.40
2017-07-09T11:31:21.687Z,37.30
2017-07-09T11:33:55.492Z,37.00
2017-07-09T11:36:29.351Z,35.70
2017-07-09T11:39:03.035Z,34.70
2017-07-09T11:41:36.848Z,33.40
2017-07-09T11:44:10.738Z,32.50
2017-07-09T11:46:44.517Z,31.80
2017-07-09T11:49:18.390Z,32.00
2017-07-09T11:51:52.475Z,31.90
2017-07-09T11:54:27.188Z,32.00
2017-07-09T11:57:01.066Z,31.90
2017-07-09T11:59:34.772Z,32.40
2017-07-09T12:02:08.664Z,31.90
2017-07-09T12:04:42.524Z,31.30
2017-07-09T12:07:16.808Z,31.00
2017-07-09T12:09:50.560Z,30.80
2017-07-09T12:12:24.591Z,31.30
2017-07-09T12:14:59.272Z,32.40
2017-07-09T12:17:33.210Z,32.30
2017-07-09T12:20:07.128Z,33.70
2017-07-09T12:22:41.672Z,33.60
2017-07-09T12:25:16.319Z,33.90
2017-07-09T12:27:50.895Z,34.00
2017-07-09T12:30:24.707Z,33.90
2017-07-09T12:32:58.771Z,34.10
2017-07-09T12:35:32.858Z,34.20
2017-07-09T12:38:06.805Z,35.00
2017-07-09T12:40:40.661Z,36.20
2017-07-09T12:43:14.516Z,38.10
2017-07-09T12:45:48.423Z,39.20
2017-07-09T12:48:22.461Z,39.30
2017-07-09T12:50:56.224Z,38.70
2017-07-09T12:53:30.299Z,39.30
2017-07-09T12:56:04.949Z,39.10
2017-07-09T12:58:38.820Z,39.10
2017-07-09T13:01:12.576Z,38.80
2017-07-09T13:03:46.551Z,38.30
2017-07-09T13:06:20.376Z,38.70
2017-07-09T13:08:54.487Z,39.00
2017-07-09T13:11:28.358Z,37.90
2017-07-09T13:14:03.017Z,39.00
2017-07-09T13:16:36.806Z,39.00
2017-07-09T13:19:10.798Z,38.80
2017-07-09T13:21:44.598Z,38.40
2017-07-09T13:24:18.503Z,38.90
2017-07-09T13:27:19.609Z,38.60
2017-07-09T13:29:53.596Z,38.50
2017-07-09T13:32:27.280Z,37.90
2017-07-09T13:35:01.276Z,37.40
2017-07-09T13:37:35.130Z,36.90
2017-07-09T13:40:09.015Z,36.30
2017-07-09T13:42:42.800Z,35.30
2017-07-09T13:45:22.045Z,35.30
2017-07-09T13:47:55.820Z,35.40
2017-07-09T13:50:29.637Z,33.00
2017-07-09T13:53:04.402Z,31.00
2017-07-09T13:55:38.109Z,30.90
2017-07-09T13:58:11.977Z,30.70
2017-07-09T14:00:45.819Z,30.50
2017-07-09T14:03:19.756Z,30.70
2017-07-09T14:05:53.450Z,30.80
2017-07-09T14:08:27.289Z,31.00
2017-07-09T14:11:01.200Z,31.30
2017-07-09T14:13:35.000Z,31.40
2017-07-09T14:16:09.153Z,31.40
2017-07-09T14:18:42.926Z,31.40
2017-07-09T14:21:16.645Z,31.00
2017-07-09T14:23:50.508Z,30.60
2017-07-09T14:26:24.385Z,30.30
2017-07-09T14:28:58.135Z,30.40
2017-07-09T14:31:31.898Z,29.90
2017-07-09T14:34:05.601Z,29.40
2017-07-09T14:36:39.502Z,29.30
2017-07-09T14:39:13.203Z,29.00
2017-07-09T14:41:47.169Z,28.70
2017-07-09T14:44:21.091Z,28.50
2017-07-09T14:46:54.857Z,28.30
2017-07-09T14:49:29.513Z,27.60
2017-07-09T14:52:03.200Z,27.50
2017-07-09T14:54:37.062Z,27.20
2017-07-09T14:57:11.089Z,26.60
2017-07-09T14:59:46.004Z,25.20
2017-07-09T15:02:19.997Z,25.10
2017-07-09T15:04:55.551Z,24.40
2017-07-09T15:07:30.391Z,22.60
2017-07-09T15:10:05.411Z,22.50
2017-07-09T15:12:39.255Z,21.90
2017-07-09T15:15:39.809Z,20.90
2017-07-09T15:25:00.149Z,20.30
